Terminal Aerodrome Forecast
Issued by NWS Wichita, KS

Home | Current Version | Previous Version | Text Only | Print | Product List | Glossary On
Versions: 1 2 3 4 5 6 7 8 9 10 11 12 13 14 15 16 17 18 19 20 21
000
FTUS43 KICT 242336
TAFICT
TAF
KICT 242336Z 2500/2524 VRB05KT P6SM FEW030 FEW250
     FM250400 17008KT P6SM SKC
     FM251200 18012KT P6SM SCT250
     FM251500 18020G30KT P6SM SCT250=

USA.gov is the U.S. government's official web portal to all federal, state and local government web resources and services.